Mc Minnville Municipal Airport
KMMV : now visible

Airfield :











YOU CAN JOIN US ON...

 
LOGIN :

Register | Disclaimer

   EN    FR    IT 

 









Legend :    VFR   Marginal VFR   IFR   Intensive IFR   Very Intensive IFR
Visi :
Ceiling :
>= 8 km
>= 3000ft
5 to 8 km
1000 to 3000 ft
1500m to 5 km
500 to 1000 ft
800 to 1500m
200 to 500 ft
< 800m
< 200 ft
Symbols :   Thunderstorms  Fog  Heavy snow  Heavy precipitations  Wind > 20 kt






- Airport Elevation : 163 ft


KMMV - Mc Minnville Municipal

CURRENT METAR :
  • 250053Z AUTO 24013KT 10SM BKN065 26/13 A3005 RMK AO2 SLP173 T02560133

EXPIRED METARs :
  • 242353Z AUTO 22013G21KT 10SM CLR 27/12 A3004 RMK AO2 SLP171 T02720122 10283 20222 56014
  • 242253Z AUTO 21011KT 10SM CLR 28/13 A3005 RMK AO2 SLP173 T02780128
  • 242153Z AUTO 27007KT 10SM CLR 27/12 A3007 RMK AO2 SLP179 T02720117
  • 242053Z AUTO VRB03KT 10SM CLR 27/11 A3008 RMK AO2 SLP184 T02670111 58005

TAF N/A
KZSE FIR / North America



MET'MAP, your aeronautical weather chart ! - Copyright ORBIFLY December 2007 - Disclaimer

ORBIFLY MET'MAP TEAM :

Programming & Development : Alexandra Zaïnal
Original concept : Baudouin d'Aumeries
Technical & hardware support : Manuel Goepfert
Assistance : Marc-Olivier Méhu




SOURCES & CREDITS :

   NOAA       Earth
Advisory